sensor_id;sensor_type;location;lat;lon;timestamp;temperature;humidity
75281;HTU21D;63874;47.230;39.620;2024-02-26T00:00:00;-1.64;75.83
75281;HTU21D;63874;47.230;39.620;2024-02-26T00:02:26;-1.68;75.76
75281;HTU21D;63874;47.230;39.620;2024-02-26T00:04:52;-1.63;76.20
75281;HTU21D;63874;47.230;39.620;2024-02-26T00:07:17;-1.61;76.51
75281;HTU21D;63874;47.230;39.620;2024-02-26T00:09:43;-1.67;76.04
75281;HTU21D;63874;47.230;39.620;2024-02-26T00:12:09;-1.70;76.28
75281;HTU21D;63874;47.230;39.620;2024-02-26T00:14:35;-1.73;76.49
75281;HTU21D;63874;47.230;39.620;2024-02-26T00:17:02;-1.74;76.84
75281;HTU21D;63874;47.230;39.620;2024-02-26T00:19:28;-1.76;77.18
75281;HTU21D;63874;47.230;39.620;2024-02-26T00:21:54;-1.77;76.95
75281;HTU21D;63874;47.230;39.620;2024-02-26T00:24:21;-1.79;77.02
75281;HTU21D;63874;47.230;39.620;2024-02-26T00:26:47;-1.80;77.01
75281;HTU21D;63874;47.230;39.620;2024-02-26T00:29:19;-1.82;76.91
75281;HTU21D;63874;47.230;39.620;2024-02-26T00:31:45;-1.80;77.31
75281;HTU21D;63874;47.230;39.620;2024-02-26T00:34:11;-1.77;77.50
75281;HTU21D;63874;47.230;39.620;2024-02-26T00:36:37;-1.85;77.33
75281;HTU21D;63874;47.230;39.620;2024-02-26T00:39:03;-1.87;77.28
75281;HTU21D;63874;47.230;39.620;2024-02-26T00:41:29;-1.88;77.51
75281;HTU21D;63874;47.230;39.620;2024-02-26T00:43:55;-1.93;77.37
75281;HTU21D;63874;47.230;39.620;2024-02-26T00:46:21;-2.01;77.60
75281;HTU21D;63874;47.230;39.620;2024-02-26T00:48:46;-2.09;77.73
75281;HTU21D;63874;47.230;39.620;2024-02-26T00:51:12;-2.12;77.82
75281;HTU21D;63874;47.230;39.620;2024-02-26T00:53:38;-2.09;77.97
75281;HTU21D;63874;47.230;39.620;2024-02-26T00:56:04;-2.14;77.87
75281;HTU21D;63874;47.230;39.620;2024-02-26T00:58:30;-2.20;78.10
75281;HTU21D;63874;47.230;39.620;2024-02-26T01:00:56;-2.19;78.21
75281;HTU21D;63874;47.230;39.620;2024-02-26T01:03:22;-2.22;78.34
75281;HTU21D;63874;47.230;39.620;2024-02-26T01:05:48;-2.23;78.40
75281;HTU21D;63874;47.230;39.620;2024-02-26T01:08:14;-2.24;78.54
75281;HTU21D;63874;47.230;39.620;2024-02-26T01:10:39;-2.24;78.62
75281;HTU21D;63874;47.230;39.620;2024-02-26T01:13:05;-2.29;78.56
75281;HTU21D;63874;47.230;39.620;2024-02-26T01:15:33;-2.31;78.79
75281;HTU21D;63874;47.230;39.620;2024-02-26T01:17:59;-2.31;79.16
75281;HTU21D;63874;47.230;39.620;2024-02-26T01:20:24;-2.33;78.92
75281;HTU21D;63874;47.230;39.620;2024-02-26T01:22:50;-2.32;78.97
75281;HTU21D;63874;47.230;39.620;2024-02-26T01:25:16;-2.33;78.89
75281;HTU21D;63874;47.230;39.620;2024-02-26T01:27:42;-2.35;79.01
75281;HTU21D;63874;47.230;39.620;2024-02-26T01:30:10;-2.35;79.20
75281;HTU21D;63874;47.230;39.620;2024-02-26T01:32:36;-2.37;79.03
75281;HTU21D;63874;47.230;39.620;2024-02-26T01:35:02;-2.37;79.24
75281;HTU21D;63874;47.230;39.620;2024-02-26T01:37:36;-2.35;79.17
75281;HTU21D;63874;47.230;39.620;2024-02-26T01:40:02;-2.37;79.06
75281;HTU21D;63874;47.230;39.620;2024-02-26T01:42:32;-2.37;79.07
75281;HTU21D;63874;47.230;39.620;2024-02-26T01:44:59;-2.38;78.92
75281;HTU21D;63874;47.230;39.620;2024-02-26T01:47:25;-2.37;79.08
75281;HTU21D;63874;47.230;39.620;2024-02-26T01:49:53;-2.38;78.90
75281;HTU21D;63874;47.230;39.620;2024-02-26T01:52:19;-2.38;78.98
75281;HTU21D;63874;47.230;39.620;2024-02-26T01:54:47;-2.41;78.92
75281;HTU21D;63874;47.230;39.620;2024-02-26T01:57:13;-2.38;78.92
75281;HTU21D;63874;47.230;39.620;2024-02-26T01:59:40;-2.41;78.95
75281;HTU21D;63874;47.230;39.620;2024-02-26T02:02:08;-2.47;79.05
75281;HTU21D;63874;47.230;39.620;2024-02-26T02:04:36;-2.46;79.14
75281;HTU21D;63874;47.230;39.620;2024-02-26T02:07:03;-2.47;79.26
75281;HTU21D;63874;47.230;39.620;2024-02-26T02:09:30;-2.46;79.27
75281;HTU21D;63874;47.230;39.620;2024-02-26T02:11:58;-2.47;79.20
75281;HTU21D;63874;47.230;39.620;2024-02-26T02:14:25;-2.47;79.17
75281;HTU21D;63874;47.230;39.620;2024-02-26T02:16:51;-2.49;79.18
75281;HTU21D;63874;47.230;39.620;2024-02-26T02:19:17;-2.43;79.33
75281;HTU21D;63874;47.230;39.620;2024-02-26T02:21:42;-2.39;79.26
75281;HTU21D;63874;47.230;39.620;2024-02-26T02:24:08;-2.44;79.37
75281;HTU21D;63874;47.230;39.620;2024-02-26T02:26:34;-2.48;79.36
75281;HTU21D;63874;47.230;39.620;2024-02-26T02:29:00;-2.52;79.47
75281;HTU21D;63874;47.230;39.620;2024-02-26T02:31:27;-2.56;79.56
75281;HTU21D;63874;47.230;39.620;2024-02-26T02:33:52;-2.58;79.66
75281;HTU21D;63874;47.230;39.620;2024-02-26T02:36:18;-2.60;79.69
75281;HTU21D;63874;47.230;39.620;2024-02-26T02:38:49;-2.59;79.69
75281;HTU21D;63874;47.230;39.620;2024-02-26T02:41:18;-2.61;79.74
75281;HTU21D;63874;47.230;39.620;2024-02-26T02:43:44;-2.58;79.92
75281;HTU21D;63874;47.230;39.620;2024-02-26T02:46:10;-2.62;79.69
75281;HTU21D;63874;47.230;39.620;2024-02-26T02:48:39;-2.60;79.58
75281;HTU21D;63874;47.230;39.620;2024-02-26T02:51:05;-2.59;79.75
75281;HTU21D;63874;47.230;39.620;2024-02-26T02:53:31;-2.59;79.75
75281;HTU21D;63874;47.230;39.620;2024-02-26T02:55:57;-2.54;79.77
75281;HTU21D;63874;47.230;39.620;2024-02-26T02:58:23;-2.52;79.71
75281;HTU21D;63874;47.230;39.620;2024-02-26T03:00:49;-2.53;79.56
75281;HTU21D;63874;47.230;39.620;2024-02-26T03:03:15;-2.51;79.55
75281;HTU21D;63874;47.230;39.620;2024-02-26T03:05:41;-2.53;79.58
75281;HTU21D;63874;47.230;39.620;2024-02-26T03:08:07;-2.54;79.49
75281;HTU21D;63874;47.230;39.620;2024-02-26T03:10:33;-2.52;79.63
75281;HTU21D;63874;47.230;39.620;2024-02-26T03:12:58;-2.53;79.59
75281;HTU21D;63874;47.230;39.620;2024-02-26T03:15:25;-2.54;79.75
75281;HTU21D;63874;47.230;39.620;2024-02-26T03:17:51;-2.58;79.58
75281;HTU21D;63874;47.230;39.620;2024-02-26T03:20:17;-2.53;79.85
75281;HTU21D;63874;47.230;39.620;2024-02-26T03:22:44;-2.57;79.65
75281;HTU21D;63874;47.230;39.620;2024-02-26T03:25:11;-2.53;79.66
75281;HTU21D;63874;47.230;39.620;2024-02-26T03:27:37;-2.54;79.70
75281;HTU21D;63874;47.230;39.620;2024-02-26T03:30:02;-2.52;79.78
75281;HTU21D;63874;47.230;39.620;2024-02-26T03:32:29;-2.54;79.74
75281;HTU21D;63874;47.230;39.620;2024-02-26T03:34:58;-2.56;79.75
75281;HTU21D;63874;47.230;39.620;2024-02-26T03:37:24;-2.58;79.64
75281;HTU21D;63874;47.230;39.620;2024-02-26T03:39:50;-2.54;79.79
75281;HTU21D;63874;47.230;39.620;2024-02-26T03:42:16;-2.48;79.91
75281;HTU21D;63874;47.230;39.620;2024-02-26T03:44:42;-2.50;79.69
75281;HTU21D;63874;47.230;39.620;2024-02-26T03:47:07;-2.53;79.68
75281;HTU21D;63874;47.230;39.620;2024-02-26T03:49:33;-2.54;79.76
75281;HTU21D;63874;47.230;39.620;2024-02-26T03:51:59;-2.59;79.88
75281;HTU21D;63874;47.230;39.620;2024-02-26T03:54:25;-2.61;79.83
75281;HTU21D;63874;47.230;39.620;2024-02-26T03:56:50;-2.62;79.85
75281;HTU21D;63874;47.230;39.620;2024-02-26T03:59:16;-2.63;79.88
75281;HTU21D;63874;47.230;39.620;2024-02-26T04:01:46;-2.61;80.12
75281;HTU21D;63874;47.230;39.620;2024-02-26T04:04:13;-2.60;80.17
75281;HTU21D;63874;47.230;39.620;2024-02-26T04:06:38;-2.59;80.26
75281;HTU21D;63874;47.230;39.620;2024-02-26T04:09:04;-2.58;80.29
75281;HTU21D;63874;47.230;39.620;2024-02-26T04:11:30;-2.58;80.22
75281;HTU21D;63874;47.230;39.620;2024-02-26T04:13:56;-2.54;80.40
75281;HTU21D;63874;47.230;39.620;2024-02-26T04:16:22;-2.54;80.37
75281;HTU21D;63874;47.230;39.620;2024-02-26T04:18:48;-2.56;80.27
75281;HTU21D;63874;47.230;39.620;2024-02-26T04:21:14;-2.52;80.34
75281;HTU21D;63874;47.230;39.620;2024-02-26T04:23:40;-2.45;80.24
75281;HTU21D;63874;47.230;39.620;2024-02-26T04:26:06;-2.38;80.10
75281;HTU21D;63874;47.230;39.620;2024-02-26T04:28:32;-2.33;80.01
75281;HTU21D;63874;47.230;39.620;2024-02-26T04:30:58;-2.28;79.85
75281;HTU21D;63874;47.230;39.620;2024-02-26T04:33:24;-2.24;79.85
75281;HTU21D;63874;47.230;39.620;2024-02-26T04:35:49;-2.19;79.75
75281;HTU21D;63874;47.230;39.620;2024-02-26T04:38:15;-2.20;79.66
75281;HTU21D;63874;47.230;39.620;2024-02-26T04:40:41;-2.16;79.59
75281;HTU21D;63874;47.230;39.620;2024-02-26T04:43:06;-2.13;79.46
75281;HTU21D;63874;47.230;39.620;2024-02-26T04:45:35;-2.07;79.40
75281;HTU21D;63874;47.230;39.620;2024-02-26T04:48:01;-2.01;79.25
75281;HTU21D;63874;47.230;39.620;2024-02-26T04:50:27;-1.94;78.99
75281;HTU21D;63874;47.230;39.620;2024-02-26T04:52:53;-1.89;78.77
75281;HTU21D;63874;47.230;39.620;2024-02-26T04:55:18;-1.80;78.44
75281;HTU21D;63874;47.230;39.620;2024-02-26T04:57:44;-1.78;78.29
75281;HTU21D;63874;47.230;39.620;2024-02-26T05:00:10;-1.75;78.17
75281;HTU21D;63874;47.230;39.620;2024-02-26T05:02:36;-1.74;78.08
75281;HTU21D;63874;47.230;39.620;2024-02-26T05:05:04;-1.74;78.05
75281;HTU21D;63874;47.230;39.620;2024-02-26T05:07:30;-1.65;77.91
75281;HTU21D;63874;47.230;39.620;2024-02-26T05:09:56;-1.61;77.73
75281;HTU21D;63874;47.230;39.620;2024-02-26T05:12:22;-1.55;77.49
75281;HTU21D;63874;47.230;39.620;2024-02-26T05:14:48;-1.53;77.22
75281;HTU21D;63874;47.230;39.620;2024-02-26T05:17:14;-1.50;77.24
75281;HTU21D;63874;47.230;39.620;2024-02-26T05:19:39;-1.47;77.18
75281;HTU21D;63874;47.230;39.620;2024-02-26T05:22:05;-1.41;76.98
75281;HTU21D;63874;47.230;39.620;2024-02-26T05:24:31;-1.36;76.76
75281;HTU21D;63874;47.230;39.620;2024-02-26T05:26:57;-1.36;76.57
75281;HTU21D;63874;47.230;39.620;2024-02-26T05:29:23;-1.34;76.38
75281;HTU21D;63874;47.230;39.620;2024-02-26T05:31:49;-1.32;76.54
75281;HTU21D;63874;47.230;39.620;2024-02-26T05:34:15;-1.26;76.57
75281;HTU21D;63874;47.230;39.620;2024-02-26T05:36:41;-1.18;76.28
75281;HTU21D;63874;47.230;39.620;2024-02-26T05:39:06;-1.11;75.94
75281;HTU21D;63874;47.230;39.620;2024-02-26T05:41:35;-1.04;75.73
75281;HTU21D;63874;47.230;39.620;2024-02-26T05:44:01;-0.98;75.84
75281;HTU21D;63874;47.230;39.620;2024-02-26T05:46:27;-0.90;75.43
75281;HTU21D;63874;47.230;39.620;2024-02-26T05:48:53;-0.85;75.18
75281;HTU21D;63874;47.230;39.620;2024-02-26T05:51:19;-0.76;74.50
75281;HTU21D;63874;47.230;39.620;2024-02-26T05:53:45;-0.72;74.21
75281;HTU21D;63874;47.230;39.620;2024-02-26T05:56:12;-0.67;74.29
75281;HTU21D;63874;47.230;39.620;2024-02-26T05:58:38;-0.60;74.15
75281;HTU21D;63874;47.230;39.620;2024-02-26T06:01:04;-0.58;73.85
75281;HTU21D;63874;47.230;39.620;2024-02-26T06:03:32;-0.53;73.83
75281;HTU21D;63874;47.230;39.620;2024-02-26T06:05:58;-0.47;73.48
75281;HTU21D;63874;47.230;39.620;2024-02-26T06:08:24;-0.41;73.18
75281;HTU21D;63874;47.230;39.620;2024-02-26T06:10:49;-0.39;73.53
75281;HTU21D;63874;47.230;39.620;2024-02-26T06:13:15;-0.32;73.44
75281;HTU21D;63874;47.230;39.620;2024-02-26T06:15:41;-0.26;72.64
75281;HTU21D;63874;47.230;39.620;2024-02-26T06:18:07;-0.23;72.90
75281;HTU21D;63874;47.230;39.620;2024-02-26T06:20:33;-0.16;72.83
75281;HTU21D;63874;47.230;39.620;2024-02-26T06:23:02;-0.09;73.00
75281;HTU21D;63874;47.230;39.620;2024-02-26T06:25:28;0.03;72.55
75281;HTU21D;63874;47.230;39.620;2024-02-26T06:27:54;0.07;71.72
75281;HTU21D;63874;47.230;39.620;2024-02-26T06:30:20;0.10;71.50
75281;HTU21D;63874;47.230;39.620;2024-02-26T06:32:46;0.17;71.26
75281;HTU21D;63874;47.230;39.620;2024-02-26T06:35:12;0.21;70.64
75281;HTU21D;63874;47.230;39.620;2024-02-26T06:37:38;0.24;71.22
75281;HTU21D;63874;47.230;39.620;2024-02-26T06:40:04;0.31;70.42
75281;HTU21D;63874;47.230;39.620;2024-02-26T06:42:34;0.34;70.70
75281;HTU21D;63874;47.230;39.620;2024-02-26T06:45:00;0.43;70.57
75281;HTU21D;63874;47.230;39.620;2024-02-26T06:47:26;0.51;70.18
75281;HTU21D;63874;47.230;39.620;2024-02-26T06:49:52;0.60;70.69
75281;HTU21D;63874;47.230;39.620;2024-02-26T06:52:18;0.66;70.39
75281;HTU21D;63874;47.230;39.620;2024-02-26T06:54:43;0.68;69.68
75281;HTU21D;63874;47.230;39.620;2024-02-26T06:57:10;0.74;68.81
75281;HTU21D;63874;47.230;39.620;2024-02-26T06:59:36;0.78;68.63
75281;HTU21D;63874;47.230;39.620;2024-02-26T07:02:02;0.84;68.13
75281;HTU21D;63874;47.230;39.620;2024-02-26T07:04:27;0.91;67.68
75281;HTU21D;63874;47.230;39.620;2024-02-26T07:06:53;0.93;68.07
75281;HTU21D;63874;47.230;39.620;2024-02-26T07:09:19;1.03;68.17
75281;HTU21D;63874;47.230;39.620;2024-02-26T07:11:45;1.14;67.76
75281;HTU21D;63874;47.230;39.620;2024-02-26T07:14:11;1.23;66.91
75281;HTU21D;63874;47.230;39.620;2024-02-26T07:16:37;1.24;67.26
75281;HTU21D;63874;47.230;39.620;2024-02-26T07:19:03;1.29;67.14
75281;HTU21D;63874;47.230;39.620;2024-02-26T07:21:29;1.34;67.05
75281;HTU21D;63874;47.230;39.620;2024-02-26T07:23:55;1.41;66.59
75281;HTU21D;63874;47.230;39.620;2024-02-26T07:26:20;1.49;66.67
75281;HTU21D;63874;47.230;39.620;2024-02-26T07:28:46;1.57;66.34
75281;HTU21D;63874;47.230;39.620;2024-02-26T07:31:12;1.63;65.30
75281;HTU21D;63874;47.230;39.620;2024-02-26T07:33:38;1.61;65.12
75281;HTU21D;63874;47.230;39.620;2024-02-26T07:36:04;1.67;64.76
75281;HTU21D;63874;47.230;39.620;2024-02-26T07:38:30;1.77;64.82
75281;HTU21D;63874;47.230;39.620;2024-02-26T07:40:55;1.83;64.96
75281;HTU21D;63874;47.230;39.620;2024-02-26T07:43:22;1.92;63.53
75281;HTU21D;63874;47.230;39.620;2024-02-26T07:45:48;1.97;63.40
75281;HTU21D;63874;47.230;39.620;2024-02-26T07:48:14;1.98;63.41
75281;HTU21D;63874;47.230;39.620;2024-02-26T07:50:40;2.01;63.82
75281;HTU21D;63874;47.230;39.620;2024-02-26T07:53:08;2.14;63.24
75281;HTU21D;63874;47.230;39.620;2024-02-26T07:55:34;2.15;62.82
75281;HTU21D;63874;47.230;39.620;2024-02-26T07:58:00;2.17;63.27
75281;HTU21D;63874;47.230;39.620;2024-02-26T08:00:25;2.21;62.90
75281;HTU21D;63874;47.230;39.620;2024-02-26T08:02:51;2.27;63.31
75281;HTU21D;63874;47.230;39.620;2024-02-26T08:05:17;2.32;64.04
75281;HTU21D;63874;47.230;39.620;2024-02-26T08:07:43;2.43;63.48
75281;HTU21D;63874;47.230;39.620;2024-02-26T08:10:08;2.49;63.08
75281;HTU21D;63874;47.230;39.620;2024-02-26T08:12:34;2.54;62.59
75281;HTU21D;63874;47.230;39.620;2024-02-26T08:15:00;2.60;62.24
75281;HTU21D;63874;47.230;39.620;2024-02-26T08:17:26;2.60;62.10
75281;HTU21D;63874;47.230;39.620;2024-02-26T08:19:53;2.65;62.61
75281;HTU21D;63874;47.230;39.620;2024-02-26T08:22:18;2.70;61.79
75281;HTU21D;63874;47.230;39.620;2024-02-26T08:24:44;2.75;61.31
75281;HTU21D;63874;47.230;39.620;2024-02-26T08:27:10;2.81;61.57
75281;HTU21D;63874;47.230;39.620;2024-02-26T08:29:36;2.86;62.00
75281;HTU21D;63874;47.230;39.620;2024-02-26T08:32:01;2.94;61.84
75281;HTU21D;63874;47.230;39.620;2024-02-26T08:34:27;2.98;61.47
75281;HTU21D;63874;47.230;39.620;2024-02-26T08:36:53;3.01;61.53
75281;HTU21D;63874;47.230;39.620;2024-02-26T08:39:19;3.04;61.04
75281;HTU21D;63874;47.230;39.620;2024-02-26T08:41:44;3.12;61.94
75281;HTU21D;63874;47.230;39.620;2024-02-26T08:44:10;3.23;61.07
75281;HTU21D;63874;47.230;39.620;2024-02-26T08:46:37;3.30;62.04
75281;HTU21D;63874;47.230;39.620;2024-02-26T08:49:03;3.44;61.86
75281;HTU21D;63874;47.230;39.620;2024-02-26T08:51:28;3.56;61.05
75281;HTU21D;63874;47.230;39.620;2024-02-26T08:53:54;3.62;60.54
75281;HTU21D;63874;47.230;39.620;2024-02-26T08:56:20;3.70;59.51
75281;HTU21D;63874;47.230;39.620;2024-02-26T08:58:47;3.67;60.09
75281;HTU21D;63874;47.230;39.620;2024-02-26T09:01:14;3.69;59.71
75281;HTU21D;63874;47.230;39.620;2024-02-26T09:03:40;3.67;60.21
75281;HTU21D;63874;47.230;39.620;2024-02-26T09:06:06;3.74;60.28
75281;HTU21D;63874;47.230;39.620;2024-02-26T09:08:34;3.85;60.05
75281;HTU21D;63874;47.230;39.620;2024-02-26T09:11:04;3.90;59.25
75281;HTU21D;63874;47.230;39.620;2024-02-26T09:13:29;3.97;58.60
75281;HTU21D;63874;47.230;39.620;2024-02-26T09:15:55;3.95;58.83
75281;HTU21D;63874;47.230;39.620;2024-02-26T09:18:21;4.04;58.50
75281;HTU21D;63874;47.230;39.620;2024-02-26T09:20:47;4.14;57.59
75281;HTU21D;63874;47.230;39.620;2024-02-26T09:23:13;4.16;57.72
75281;HTU21D;63874;47.230;39.620;2024-02-26T09:25:38;4.31;58.32
75281;HTU21D;63874;47.230;39.620;2024-02-26T09:28:04;4.78;58.71
75281;HTU21D;63874;47.230;39.620;2024-02-26T09:30:30;5.71;55.57
75281;HTU21D;63874;47.230;39.620;2024-02-26T09:32:55;6.55;53.60
75281;HTU21D;63874;47.230;39.620;2024-02-26T09:35:21;7.25;50.02
75281;HTU21D;63874;47.230;39.620;2024-02-26T09:37:47;7.83;50.08
75281;HTU21D;63874;47.230;39.620;2024-02-26T09:40:14;8.48;50.28
75281;HTU21D;63874;47.230;39.620;2024-02-26T09:42:44;9.59;48.65
75281;HTU21D;63874;47.230;39.620;2024-02-26T09:45:21;10.21;43.50
75281;HTU21D;63874;47.230;39.620;2024-02-26T09:47:47;10.29;43.79
75281;HTU21D;63874;47.230;39.620;2024-02-26T09:50:13;10.71;43.02
75281;HTU21D;63874;47.230;39.620;2024-02-26T09:52:41;11.57;41.30
75281;HTU21D;63874;47.230;39.620;2024-02-26T09:55:07;12.58;37.42
75281;HTU21D;63874;47.230;39.620;2024-02-26T09:57:34;13.45;36.08
75281;HTU21D;63874;47.230;39.620;2024-02-26T10:00:00;14.22;34.18
75281;HTU21D;63874;47.230;39.620;2024-02-26T10:02:30;14.91;32.00
75281;HTU21D;63874;47.230;39.620;2024-02-26T10:04:55;15.04;30.19
75281;HTU21D;63874;47.230;39.620;2024-02-26T10:07:23;14.57;30.02
75281;HTU21D;63874;47.230;39.620;2024-02-26T10:09:48;14.57;31.92
75281;HTU21D;63874;47.230;39.620;2024-02-26T10:12:14;14.73;32.52
75281;HTU21D;63874;47.230;39.620;2024-02-26T10:14:42;15.01;32.94
75281;HTU21D;63874;47.230;39.620;2024-02-26T10:17:09;14.91;30.51
75281;HTU21D;63874;47.230;39.620;2024-02-26T10:19:35;14.70;32.12
75281;HTU21D;63874;47.230;39.620;2024-02-26T10:22:01;14.64;32.68
75281;HTU21D;63874;47.230;39.620;2024-02-26T10:24:29;14.91;33.18
75281;HTU21D;63874;47.230;39.620;2024-02-26T10:26:55;15.08;30.61
75281;HTU21D;63874;47.230;39.620;2024-02-26T10:29:21;15.13;32.31
75281;HTU21D;63874;47.230;39.620;2024-02-26T10:31:47;15.54;30.35
75281;HTU21D;63874;47.230;39.620;2024-02-26T10:34:16;15.29;30.99
75281;HTU21D;63874;47.230;39.620;2024-02-26T10:36:42;15.51;32.18
75281;HTU21D;63874;47.230;39.620;2024-02-26T10:39:09;15.99;31.70
75281;HTU21D;63874;47.230;39.620;2024-02-26T10:41:36;16.10;28.86
75281;HTU21D;63874;47.230;39.620;2024-02-26T10:44:02;15.71;29.62
75281;HTU21D;63874;47.230;39.620;2024-02-26T10:46:28;15.29;30.99
75281;HTU21D;63874;47.230;39.620;2024-02-26T10:48:54;15.12;31.33
75281;HTU21D;63874;47.230;39.620;2024-02-26T10:51:28;14.58;31.42
75281;HTU21D;63874;47.230;39.620;2024-02-26T10:53:57;14.68;32.38
75281;HTU21D;63874;47.230;39.620;2024-02-26T10:56:24;15.28;32.22
75281;HTU21D;63874;47.230;39.620;2024-02-26T10:58:52;15.83;30.29
75281;HTU21D;63874;47.230;39.620;2024-02-26T11:01:18;16.06;29.22
75281;HTU21D;63874;47.230;39.620;2024-02-26T11:03:44;16.07;28.95
75281;HTU21D;63874;47.230;39.620;2024-02-26T11:06:11;15.53;30.45
75281;HTU21D;63874;47.230;39.620;2024-02-26T11:08:37;15.65;31.28
75281;HTU21D;63874;47.230;39.620;2024-02-26T11:11:03;15.60;29.70
75281;HTU21D;63874;47.230;39.620;2024-02-26T11:13:30;14.28;31.38
75281;HTU21D;63874;47.230;39.620;2024-02-26T11:15:56;12.80;33.47
75281;HTU21D;63874;47.230;39.620;2024-02-26T11:18:26;11.34;35.57
75281;HTU21D;63874;47.230;39.620;2024-02-26T11:20:52;10.35;37.47
75281;HTU21D;63874;47.230;39.620;2024-02-26T11:23:22;9.56;39.25
75281;HTU21D;63874;47.230;39.620;2024-02-26T11:25:52;8.87;41.10
75281;HTU21D;63874;47.230;39.620;2024-02-26T11:28:18;8.24;42.52
75281;HTU21D;63874;47.230;39.620;2024-02-26T11:30:46;7.84;43.71
75281;HTU21D;63874;47.230;39.620;2024-02-26T11:33:12;7.47;44.58
75281;HTU21D;63874;47.230;39.620;2024-02-26T11:35:39;7.23;46.12
75281;HTU21D;63874;47.230;39.620;2024-02-26T11:38:05;6.90;46.62
75281;HTU21D;63874;47.230;39.620;2024-02-26T11:40:33;6.72;47.32
75281;HTU21D;63874;47.230;39.620;2024-02-26T11:42:59;6.58;47.71
75281;HTU21D;63874;47.230;39.620;2024-02-26T11:48:16;6.41;48.88
75281;HTU21D;63874;47.230;39.620;2024-02-26T11:50:54;6.33;49.05
75281;HTU21D;63874;47.230;39.620;2024-02-26T11:53:21;6.26;49.53
75281;HTU21D;63874;47.230;39.620;2024-02-26T11:55:47;6.22;49.72
75281;HTU21D;63874;47.230;39.620;2024-02-26T11:58:14;6.20;49.99
75281;HTU21D;63874;47.230;39.620;2024-02-26T12:00:40;6.15;50.13
75281;HTU21D;63874;47.230;39.620;2024-02-26T12:03:06;6.13;50.24
75281;HTU21D;63874;47.230;39.620;2024-02-26T12:05:34;6.11;50.44
75281;HTU21D;63874;47.230;39.620;2024-02-26T12:08:03;6.08;50.64
75281;HTU21D;63874;47.230;39.620;2024-02-26T12:10:38;6.02;50.66
75281;HTU21D;63874;47.230;39.620;2024-02-26T12:13:11;5.98;50.96
75281;HTU21D;63874;47.230;39.620;2024-02-26T12:15:44;5.94;51.11
75281;HTU21D;63874;47.230;39.620;2024-02-26T12:18:10;5.89;51.39
75281;HTU21D;63874;47.230;39.620;2024-02-26T12:20:40;5.89;51.69
75281;HTU21D;63874;47.230;39.620;2024-02-26T12:23:06;5.86;51.74
75281;HTU21D;63874;47.230;39.620;2024-02-26T12:25:32;5.85;52.01
75281;HTU21D;63874;47.230;39.620;2024-02-26T12:27:58;5.85;52.21
75281;HTU21D;63874;47.230;39.620;2024-02-26T12:30:25;5.85;52.17
75281;HTU21D;63874;47.230;39.620;2024-02-26T12:32:51;5.85;52.19
75281;HTU21D;63874;47.230;39.620;2024-02-26T12:35:18;5.80;52.33
75281;HTU21D;63874;47.230;39.620;2024-02-26T12:37:44;5.82;52.48
75281;HTU21D;63874;47.230;39.620;2024-02-26T12:40:10;5.82;52.46
75281;HTU21D;63874;47.230;39.620;2024-02-26T12:42:36;5.84;52.09
75281;HTU21D;63874;47.230;39.620;2024-02-26T12:45:06;5.81;52.20
75281;HTU21D;63874;47.230;39.620;2024-02-26T12:47:38;5.80;52.24
75281;HTU21D;63874;47.230;39.620;2024-02-26T12:50:05;5.78;52.30
75281;HTU21D;63874;47.230;39.620;2024-02-26T12:52:31;5.74;52.46
75281;HTU21D;63874;47.230;39.620;2024-02-26T12:54:57;5.71;52.53
75281;HTU21D;63874;47.230;39.620;2024-02-26T12:57:23;5.69;52.56
75281;HTU21D;63874;47.230;39.620;2024-02-26T12:59:49;5.74;52.56
75281;HTU21D;63874;47.230;39.620;2024-02-26T13:02:15;5.76;52.49
75281;HTU21D;63874;47.230;39.620;2024-02-26T13:04:41;5.76;52.43
75281;HTU21D;63874;47.230;39.620;2024-02-26T13:07:07;5.76;52.43
75281;HTU21D;63874;47.230;39.620;2024-02-26T13:09:34;5.79;52.38
75281;HTU21D;63874;47.230;39.620;2024-02-26T13:12:04;5.81;52.20
75281;HTU21D;63874;47.230;39.620;2024-02-26T13:14:29;5.83;51.97
75281;HTU21D;63874;47.230;39.620;2024-02-26T13:16:57;5.82;52.04
75281;HTU21D;63874;47.230;39.620;2024-02-26T13:19:23;5.83;52.00
75281;HTU21D;63874;47.230;39.620;2024-02-26T13:21:49;5.82;52.14
75281;HTU21D;63874;47.230;39.620;2024-02-26T13:24:16;5.82;52.24
75281;HTU21D;63874;47.230;39.620;2024-02-26T13:26:43;5.81;52.35
75281;HTU21D;63874;47.230;39.620;2024-02-26T13:29:09;5.81;52.37
75281;HTU21D;63874;47.230;39.620;2024-02-26T13:31:40;5.80;52.19
75281;HTU21D;63874;47.230;39.620;2024-02-26T13:34:06;5.79;52.31
75281;HTU21D;63874;47.230;39.620;2024-02-26T13:36:32;5.77;52.49
75281;HTU21D;63874;47.230;39.620;2024-02-26T13:38:58;5.77;52.26
75281;HTU21D;63874;47.230;39.620;2024-02-26T13:41:23;5.75;52.43
75281;HTU21D;63874;47.230;39.620;2024-02-26T13:43:50;5.70;52.68
75281;HTU21D;63874;47.230;39.620;2024-02-26T13:46:15;5.67;52.79
75281;HTU21D;63874;47.230;39.620;2024-02-26T13:48:42;5.64;52.96
75281;HTU21D;63874;47.230;39.620;2024-02-26T13:51:09;5.60;53.11
75281;HTU21D;63874;47.230;39.620;2024-02-26T13:53:34;5.53;53.30
75281;HTU21D;63874;47.230;39.620;2024-02-26T13:56:00;5.48;53.48
75281;HTU21D;63874;47.230;39.620;2024-02-26T13:58:26;5.49;53.73
75281;HTU21D;63874;47.230;39.620;2024-02-26T14:00:53;5.45;53.88
75281;HTU21D;63874;47.230;39.620;2024-02-26T14:03:22;5.45;53.91
75281;HTU21D;63874;47.230;39.620;2024-02-26T14:05:47;5.38;54.30
75281;HTU21D;63874;47.230;39.620;2024-02-26T14:08:16;5.37;54.42
75281;HTU21D;63874;47.230;39.620;2024-02-26T14:10:42;5.34;54.42
75281;HTU21D;63874;47.230;39.620;2024-02-26T14:13:08;5.31;54.56
75281;HTU21D;63874;47.230;39.620;2024-02-26T14:15:34;5.28;54.78
75281;HTU21D;63874;47.230;39.620;2024-02-26T14:18:00;5.21;54.91
75281;HTU21D;63874;47.230;39.620;2024-02-26T14:20:28;5.18;55.11
75281;HTU21D;63874;47.230;39.620;2024-02-26T14:22:54;5.12;55.48
75281;HTU21D;63874;47.230;39.620;2024-02-26T14:25:21;5.04;55.53
75281;HTU21D;63874;47.230;39.620;2024-02-26T14:27:47;5.00;55.94
75281;HTU21D;63874;47.230;39.620;2024-02-26T14:30:13;4.96;56.19
75281;HTU21D;63874;47.230;39.620;2024-02-26T14:32:39;4.96;56.31
75281;HTU21D;63874;47.230;39.620;2024-02-26T14:35:08;4.92;56.25
75281;HTU21D;63874;47.230;39.620;2024-02-26T14:37:34;4.86;56.41
75281;HTU21D;63874;47.230;39.620;2024-02-26T14:40:00;4.81;56.44
75281;HTU21D;63874;47.230;39.620;2024-02-26T14:42:28;4.76;56.50
75281;HTU21D;63874;47.230;39.620;2024-02-26T14:44:53;4.73;56.69
75281;HTU21D;63874;47.230;39.620;2024-02-26T14:47:19;4.68;56.83
75281;HTU21D;63874;47.230;39.620;2024-02-26T14:49:45;4.68;56.77
75281;HTU21D;63874;47.230;39.620;2024-02-26T14:52:14;4.64;56.93
75281;HTU21D;63874;47.230;39.620;2024-02-26T14:54:39;4.62;57.10
75281;HTU21D;63874;47.230;39.620;2024-02-26T14:57:05;4.64;57.08
75281;HTU21D;63874;47.230;39.620;2024-02-26T14:59:32;4.59;57.21
75281;HTU21D;63874;47.230;39.620;2024-02-26T15:01:58;4.54;57.32
75281;HTU21D;63874;47.230;39.620;2024-02-26T15:04:25;4.53;57.35